TVF79TT LFPO-EETN
Flight info
| Callsign | TVF79TT |
|---|---|
| Flight time | 2h 26m |
| Altitude | 39000 |
| Route | RANUX UN858 VALEK UM163 DIK DCT ARCKY DCT IBESA DCT NVO DCT BUMIL DCT BANUB DCT GOSOT DCT NINTA DCT ADAXA DCT LATEG DCT SULUN |
| Aircraft | B738/M-SDE2E3FGHIRWXY/LB1 |
Departure
| Time | 2025-09-05 13:31 |
|---|---|
| Airport | Paris-Orly Airport (LFPO) |
Arrival
| Time | 2025-09-05 15:58 |
|---|---|
| Airport | Lennart Meri Tallinn Airport (EETN) |
| Time | Latitude | Longitude | Altitude | Speed | Heading |
|---|---|---|---|---|---|
| 2025-09-05 12:34 | 48.72717 | 2.36748 | 293 ft | 0 kts | 22° |
| 2025-09-05 13:21 | 48.72691 | 2.36732 | 298 ft | 3 kts | 22° |
| 2025-09-05 13:22 | 48.72654 | 2.36709 | 300 ft | 3 kts | 9° |
| 2025-09-05 13:22 | 48.72624 | 2.36714 | 298 ft | 2 kts | 341° |
| 2025-09-05 13:22 | 48.72612 | 2.36724 | 298 ft | 3 kts | 290° |
| 2025-09-05 13:23 | 48.72616 | 2.36763 | 298 ft | 2 kts | 250° |
| 2025-09-05 13:24 | 48.72621 | 2.36782 | 300 ft | 0 kts | 250° |
| 2025-09-05 13:26 | 48.72591 | 2.36661 | 298 ft | 11 kts | 247° |
| 2025-09-05 13:26 | 48.72529 | 2.36351 | 296 ft | 16 kts | 255° |
| 2025-09-05 13:26 | 48.72500 | 2.36191 | 298 ft | 15 kts | 255° |
| 2025-09-05 13:27 | 48.72473 | 2.35887 | 294 ft | 14 kts | 276° |
| 2025-09-05 13:28 | 48.72555 | 2.35557 | 298 ft | 15 kts | 344° |
| 2025-09-05 13:28 | 48.72789 | 2.35458 | 296 ft | 17 kts | 345° |
| 2025-09-05 13:29 | 48.73008 | 2.35388 | 296 ft | 16 kts | 19° |
| 2025-09-05 13:29 | 48.73211 | 2.35473 | 295 ft | 14 kts | 351° |
| 2025-09-05 13:30 | 48.73235 | 2.35188 | 298 ft | 38 kts | 242° |
| 2025-09-05 13:30 | 48.72989 | 2.34491 | 298 ft | 110 kts | 242° |
| 2025-09-05 13:30 | 48.71988 | 2.31731 | 1118 ft | 162 kts | 240° |
| 2025-09-05 13:31 | 48.70806 | 2.28980 | 3216 ft | 149 kts | 234° |
| 2025-09-05 13:32 | 48.68851 | 2.24386 | 4540 ft | 211 kts | 237° |
| 2025-09-05 13:32 | 48.66694 | 2.20831 | 5345 ft | 253 kts | 204° |
| 2025-09-05 13:33 | 48.63189 | 2.21464 | 7269 ft | 275 kts | 153° |
| 2025-09-05 13:33 | 48.60005 | 2.24950 | 9054 ft | 289 kts | 146° |
| 2025-09-05 13:34 | 48.56733 | 2.28695 | 10712 ft | 304 kts | 147° |
| 2025-09-05 13:34 | 48.54964 | 2.30651 | 11125 ft | 324 kts | 147° |
| 2025-09-05 13:34 | 48.51275 | 2.34876 | 12645 ft | 342 kts | 136° |
| 2025-09-05 13:35 | 48.49611 | 2.41628 | 14275 ft | 361 kts | 88° |
| 2025-09-05 13:36 | 48.50366 | 2.53094 | 16577 ft | 373 kts | 83° |
| 2025-09-05 13:36 | 48.50914 | 2.60962 | 18101 ft | 382 kts | 84° |
| 2025-09-05 13:37 | 48.51425 | 2.69023 | 19441 ft | 390 kts | 84° |
| 2025-09-05 13:37 | 48.51931 | 2.77248 | 20755 ft | 398 kts | 84° |
| 2025-09-05 13:38 | 48.52945 | 2.85463 | 21962 ft | 401 kts | 62° |
| 2025-09-05 13:38 | 48.54481 | 2.88938 | 22623 ft | 398 kts | 46° |
| 2025-09-05 13:38 | 48.58161 | 2.95259 | 23844 ft | 405 kts | 44° |
| 2025-09-05 13:39 | 48.61941 | 3.01650 | 24890 ft | 410 kts | 44° |
| 2025-09-05 13:41 | 48.75353 | 3.25029 | 28236 ft | 432 kts | 44° |
| 2025-09-05 13:42 | 48.87293 | 3.52297 | 31031 ft | 462 kts | 60° |
| 2025-09-05 13:45 | 49.00141 | 3.92647 | 33668 ft | 483 kts | 59° |
| 2025-09-05 13:46 | 49.10110 | 4.24142 | 36075 ft | 469 kts | 60° |
| 2025-09-05 13:48 | 49.20457 | 4.60697 | 38248 ft | 469 kts | 64° |
| 2025-09-05 13:50 | 49.30235 | 4.97760 | 39247 ft | 471 kts | 65° |
| 2025-09-05 13:53 | 49.41235 | 5.39244 | 39262 ft | 468 kts | 65° |
| 2025-09-05 13:54 | 49.49842 | 5.71856 | 39245 ft | 467 kts | 61° |
| 2025-09-05 13:57 | 49.70959 | 5.97635 | 39275 ft | 456 kts | 30° |
| 2025-09-05 13:58 | 49.90675 | 6.13164 | 39249 ft | 453 kts | 360° |
| 2025-09-05 14:01 | 50.18768 | 6.13160 | 39244 ft | 445 kts | 358° |
| 2025-09-05 14:02 | 50.39158 | 6.22539 | 39269 ft | 456 kts | 32° |
| 2025-09-05 14:04 | 50.60727 | 6.43713 | 39245 ft | 461 kts | 27° |
| 2025-09-05 14:06 | 50.82701 | 6.64687 | 39211 ft | 469 kts | 39° |
| 2025-09-05 14:09 | 51.01847 | 7.00152 | 39199 ft | 470 kts | 49° |
| 2025-09-05 14:10 | 51.16584 | 7.27948 | 39198 ft | 469 kts | 49° |
| 2025-09-05 14:13 | 51.35345 | 7.63797 | 39199 ft | 468 kts | 50° |
| 2025-09-05 14:14 | 51.49932 | 7.92019 | 39200 ft | 471 kts | 51° |
| 2025-09-05 14:17 | 51.68758 | 8.28910 | 39200 ft | 477 kts | 51° |
| 2025-09-05 14:18 | 51.83425 | 8.58024 | 39195 ft | 478 kts | 52° |
| 2025-09-05 14:21 | 52.02138 | 8.95659 | 39161 ft | 475 kts | 53° |
| 2025-09-05 14:22 | 52.16533 | 9.24994 | 39160 ft | 476 kts | 53° |
| 2025-09-05 14:25 | 52.35058 | 9.63248 | 39158 ft | 478 kts | 54° |
| 2025-09-05 14:26 | 52.49427 | 9.93321 | 39154 ft | 480 kts | 55° |
| 2025-09-05 14:29 | 52.67873 | 10.32455 | 39153 ft | 482 kts | 56° |
| 2025-09-05 14:30 | 52.82169 | 10.63206 | 39137 ft | 483 kts | 57° |
| 2025-09-05 14:33 | 53.00433 | 11.03047 | 39125 ft | 482 kts | 57° |
| 2025-09-05 14:34 | 53.14591 | 11.34227 | 39122 ft | 483 kts | 56° |
| 2025-09-05 14:37 | 53.33222 | 11.73872 | 39114 ft | 482 kts | 56° |
| 2025-09-05 14:38 | 53.47514 | 12.04833 | 39108 ft | 478 kts | 57° |
| 2025-09-05 14:40 | 53.63627 | 12.40201 | 39102 ft | 476 kts | 57° |
| 2025-09-05 14:42 | 53.78967 | 12.74341 | 39101 ft | 476 kts | 58° |
| 2025-09-05 14:44 | 53.94817 | 13.10110 | 39093 ft | 474 kts | 58° |
| 2025-09-05 14:47 | 54.12470 | 13.50562 | 39094 ft | 473 kts | 59° |
| 2025-09-05 14:48 | 54.26121 | 13.82302 | 39088 ft | 475 kts | 59° |
| 2025-09-05 14:50 | 54.41671 | 14.18954 | 39077 ft | 477 kts | 60° |
| 2025-09-05 14:52 | 54.60159 | 14.52335 | 39062 ft | 486 kts | 48° |
| 2025-09-05 14:54 | 54.79725 | 14.84405 | 39061 ft | 482 kts | 49° |
| 2025-09-05 14:57 | 54.97927 | 15.25147 | 39062 ft | 474 kts | 58° |
| 2025-09-05 14:58 | 55.11919 | 15.57302 | 39046 ft | 477 kts | 59° |
| 2025-09-05 15:00 | 55.27857 | 15.94463 | 39037 ft | 479 kts | 59° |
| 2025-09-05 15:02 | 55.43757 | 16.32104 | 39025 ft | 479 kts | 59° |
| 2025-09-05 15:04 | 55.59502 | 16.69956 | 39017 ft | 477 kts | 59° |
| 2025-09-05 15:06 | 55.75076 | 17.07978 | 39019 ft | 476 kts | 59° |
| 2025-09-05 15:08 | 55.90525 | 17.46291 | 39024 ft | 476 kts | 59° |
| 2025-09-05 15:10 | 56.06742 | 17.83800 | 39020 ft | 478 kts | 56° |
| 2025-09-05 15:12 | 56.23029 | 18.21405 | 39030 ft | 476 kts | 56° |
| 2025-09-05 15:14 | 56.39126 | 18.59162 | 39039 ft | 474 kts | 56° |
| 2025-09-05 15:16 | 56.55047 | 18.97097 | 39053 ft | 473 kts | 57° |
| 2025-09-05 15:19 | 56.72832 | 19.40188 | 39061 ft | 474 kts | 57° |
| 2025-09-05 15:21 | 56.88493 | 19.78779 | 39069 ft | 475 kts | 57° |
| 2025-09-05 15:23 | 57.04125 | 20.17917 | 39062 ft | 473 kts | 57° |
| 2025-09-05 15:25 | 57.19541 | 20.57156 | 39075 ft | 474 kts | 57° |
| 2025-09-05 15:26 | 57.32910 | 20.91704 | 39079 ft | 472 kts | 57° |
| 2025-09-05 15:29 | 57.49908 | 21.36361 | 39084 ft | 471 kts | 57° |
| 2025-09-05 15:30 | 57.63050 | 21.71463 | 38931 ft | 472 kts | 57° |
| 2025-09-05 15:33 | 57.79642 | 22.14269 | 36693 ft | 474 kts | 42° |
| 2025-09-05 15:34 | 57.97369 | 22.41913 | 32200 ft | 480 kts | 40° |
| 2025-09-05 15:37 | 58.19389 | 22.77224 | 27262 ft | 442 kts | 40° |
| 2025-09-05 15:38 | 58.33047 | 22.99420 | 24247 ft | 420 kts | 41° |
| 2025-09-05 15:38 | 58.35255 | 23.03030 | 23776 ft | 417 kts | 41° |
| 2025-09-05 15:39 | 58.39615 | 23.10171 | 22725 ft | 409 kts | 41° |
| 2025-09-05 15:40 | 58.45996 | 23.20679 | 21208 ft | 399 kts | 41° |
| 2025-09-05 15:40 | 58.50129 | 23.27512 | 20258 ft | 392 kts | 41° |
| 2025-09-05 15:41 | 58.54222 | 23.34300 | 19335 ft | 386 kts | 41° |
| 2025-09-05 15:41 | 58.58240 | 23.40985 | 18442 ft | 380 kts | 41° |
| 2025-09-05 15:42 | 58.62198 | 23.47590 | 17436 ft | 374 kts | 41° |
| 2025-09-05 15:42 | 58.66084 | 23.54096 | 16517 ft | 367 kts | 41° |
| 2025-09-05 15:42 | 58.68001 | 23.57311 | 16041 ft | 365 kts | 40° |
| 2025-09-05 15:43 | 58.71794 | 23.63690 | 15139 ft | 360 kts | 40° |
| 2025-09-05 15:44 | 58.77384 | 23.73127 | 13812 ft | 352 kts | 40° |
| 2025-09-05 15:44 | 58.81043 | 23.79325 | 12856 ft | 348 kts | 41° |
| 2025-09-05 15:45 | 58.84658 | 23.85465 | 11930 ft | 344 kts | 41° |
| 2025-09-05 15:45 | 58.88223 | 23.91540 | 11073 ft | 339 kts | 41° |
| 2025-09-05 15:46 | 58.91660 | 23.97413 | 10733 ft | 319 kts | 41° |
| 2025-09-05 15:46 | 58.94858 | 24.02890 | 10440 ft | 301 kts | 41° |
| 2025-09-05 15:47 | 59.00056 | 24.09391 | 9428 ft | 297 kts | 22° |
| 2025-09-05 15:48 | 59.05763 | 24.13853 | 8457 ft | 292 kts | 22° |
| 2025-09-05 15:48 | 59.09496 | 24.16843 | 7835 ft | 288 kts | 22° |
| 2025-09-05 15:49 | 59.13181 | 24.19828 | 7226 ft | 285 kts | 22° |
| 2025-09-05 15:49 | 59.16824 | 24.22793 | 6637 ft | 282 kts | 22° |
| 2025-09-05 15:50 | 59.20415 | 24.25785 | 6009 ft | 279 kts | 27° |
| 2025-09-05 15:50 | 59.22101 | 24.27649 | 5679 ft | 278 kts | 31° |
| 2025-09-05 15:50 | 59.25374 | 24.31599 | 5069 ft | 275 kts | 32° |
| 2025-09-05 15:51 | 59.28622 | 24.35477 | 4451 ft | 272 kts | 31° |
| 2025-09-05 15:52 | 59.33476 | 24.41192 | 3516 ft | 270 kts | 31° |
| 2025-09-05 15:52 | 59.36661 | 24.44930 | 2982 ft | 259 kts | 31° |
| 2025-09-05 15:53 | 59.39643 | 24.48434 | 2578 ft | 241 kts | 32° |
| 2025-09-05 15:53 | 59.41689 | 24.52804 | 2248 ft | 210 kts | 88° |
| 2025-09-05 15:54 | 59.41435 | 24.58089 | 2236 ft | 188 kts | 94° |
| 2025-09-05 15:54 | 59.41410 | 24.60676 | 2195 ft | 189 kts | 92° |
| 2025-09-05 15:54 | 59.41390 | 24.65701 | 1758 ft | 175 kts | 92° |
| 2025-09-05 15:55 | 59.41371 | 24.70165 | 1305 ft | 149 kts | 93° |
| 2025-09-05 15:56 | 59.41344 | 24.76094 | 656 ft | 140 kts | 89° |
| 2025-09-05 15:56 | 59.41335 | 24.79901 | 288 ft | 140 kts | 89° |
| 2025-09-05 15:57 | 59.41326 | 24.83454 | 163 ft | 99 kts | 90° |
| 2025-09-05 15:57 | 59.41321 | 24.84891 | 161 ft | 9 kts | 89° |
| 2025-09-05 15:58 | 59.41406 | 24.85013 | 161 ft | 9 kts | 359° |
| 2025-09-05 15:58 | 59.41464 | 24.85002 | 161 ft | 8 kts | 338° |
| 2025-09-05 15:59 | 59.41497 | 24.84467 | 161 ft | 20 kts | 270° |
| 2025-09-05 16:00 | 59.41500 | 24.83275 | 161 ft | 21 kts | 270° |
| 2025-09-05 16:00 | 59.41501 | 24.82722 | 161 ft | 20 kts | 270° |
| 2025-09-05 16:01 | 59.41502 | 24.82204 | 161 ft | 18 kts | 270° |
| 2025-09-05 16:01 | 59.41504 | 24.81680 | 161 ft | 19 kts | 270° |
| 2025-09-05 16:02 | 59.41505 | 24.81175 | 161 ft | 18 kts | 270° |
| 2025-09-05 16:02 | 59.41506 | 24.80937 | 161 ft | 17 kts | 270° |
| 2025-09-05 16:02 | 59.41516 | 24.80550 | 161 ft | 10 kts | 301° |
| 2025-09-05 16:03 | 59.41652 | 24.80513 | 161 ft | 10 kts | 359° |
| 2025-09-05 16:04 | 59.41749 | 24.80231 | 161 ft | 9 kts | 271° |
| 2025-09-05 16:04 | 59.41723 | 24.80122 | 161 ft | 5 kts | 186° |